Terminal Aerodrome Forecast
Issued by NWS Sterling, VA

Home | Current Version | Previous Version | Text Only | Print | Product List | Glossary On
Versions: 1 2 3 4 5 6 7 8 9 10 11 12 13 14
950
FTUS41 KLWX 271733 AAA
TAFMRB
TAF AMD
KMRB 271733Z 2718/2818 VRB03KT P6SM BKN070
     FM280600 00000KT 5SM BR BKN130
     FM281100 00000KT P6SM BKN130=

USA.gov is the U.S. government's official web portal to all federal, state and local government web resources and services.